sensor_id;sensor_type;location;lat;lon;timestamp;P1;durP1;ratioP1;P2;durP2;ratioP2
76059;SDS011;64759;52.220;5.170;2023-02-28T00:02:19;5.32;;;1.92;;
76059;SDS011;64759;52.220;5.170;2023-02-28T00:04:45;4.72;;;2.08;;
76059;SDS011;64759;52.220;5.170;2023-02-28T00:07:11;5.63;;;1.85;;
76059;SDS011;64759;52.220;5.170;2023-02-28T00:09:36;7.03;;;2.22;;
76059;SDS011;64759;52.220;5.170;2023-02-28T00:12:02;4.65;;;2.03;;
76059;SDS011;64759;52.220;5.170;2023-02-28T00:14:35;5.63;;;1.83;;
76059;SDS011;64759;52.220;5.170;2023-02-28T00:17:01;3.58;;;2.10;;
76059;SDS011;64759;52.220;5.170;2023-02-28T00:19:26;4.20;;;1.73;;
76059;SDS011;64759;52.220;5.170;2023-02-28T00:21:51;2.92;;;1.60;;
76059;SDS011;64759;52.220;5.170;2023-02-28T00:24:17;3.83;;;1.75;;
76059;SDS011;64759;52.220;5.170;2023-02-28T00:26:42;5.30;;;2.83;;
76059;SDS011;64759;52.220;5.170;2023-02-28T00:29:07;3.03;;;1.48;;
76059;SDS011;64759;52.220;5.170;2023-02-28T00:31:33;6.95;;;1.70;;
76059;SDS011;64759;52.220;5.170;2023-02-28T00:33:58;3.88;;;1.70;;
76059;SDS011;64759;52.220;5.170;2023-02-28T00:36:24;6.35;;;1.40;;
76059;SDS011;64759;52.220;5.170;2023-02-28T00:38:49;6.18;;;1.92;;
76059;SDS011;64759;52.220;5.170;2023-02-28T00:41:14;5.18;;;1.88;;
76059;SDS011;64759;52.220;5.170;2023-02-28T00:43:40;7.13;;;2.05;;
76059;SDS011;64759;52.220;5.170;2023-02-28T00:46:05;2.42;;;2.00;;
76059;SDS011;64759;52.220;5.170;2023-02-28T00:48:31;4.85;;;1.77;;
76059;SDS011;64759;52.220;5.170;2023-02-28T00:50:57;4.88;;;1.77;;
76059;SDS011;64759;52.220;5.170;2023-02-28T00:53:23;6.78;;;2.03;;
76059;SDS011;64759;52.220;5.170;2023-02-28T00:55:49;3.20;;;1.77;;
76059;SDS011;64759;52.220;5.170;2023-02-28T00:58:15;9.23;;;2.72;;
76059;SDS011;64759;52.220;5.170;2023-02-28T01:00:41;6.47;;;2.05;;
76059;SDS011;64759;52.220;5.170;2023-02-28T01:03:07;4.75;;;1.95;;
76059;SDS011;64759;52.220;5.170;2023-02-28T01:05:32;5.07;;;1.77;;
76059;SDS011;64759;52.220;5.170;2023-02-28T01:07:58;7.28;;;2.15;;
76059;SDS011;64759;52.220;5.170;2023-02-28T01:10:23;5.72;;;2.05;;
76059;SDS011;64759;52.220;5.170;2023-02-28T01:12:50;10.73;;;2.10;;
76059;SDS011;64759;52.220;5.170;2023-02-28T01:15:15;6.25;;;2.38;;
76059;SDS011;64759;52.220;5.170;2023-02-28T01:17:41;6.13;;;2.08;;
76059;SDS011;64759;52.220;5.170;2023-02-28T01:20:06;13.18;;;2.63;;
76059;SDS011;64759;52.220;5.170;2023-02-28T01:22:32;5.30;;;2.00;;
76059;SDS011;64759;52.220;5.170;2023-02-28T01:24:59;4.97;;;2.15;;
76059;SDS011;64759;52.220;5.170;2023-02-28T01:27:25;5.32;;;1.83;;
76059;SDS011;64759;52.220;5.170;2023-02-28T01:29:51;4.68;;;1.95;;
76059;SDS011;64759;52.220;5.170;2023-02-28T01:32:17;8.93;;;2.15;;
76059;SDS011;64759;52.220;5.170;2023-02-28T01:34:42;7.40;;;2.47;;
76059;SDS011;64759;52.220;5.170;2023-02-28T01:37:07;6.80;;;1.90;;
76059;SDS011;64759;52.220;5.170;2023-02-28T01:39:33;5.03;;;2.45;;
76059;SDS011;64759;52.220;5.170;2023-02-28T01:41:58;6.38;;;1.88;;
76059;SDS011;64759;52.220;5.170;2023-02-28T01:47:33;3.75;;;2.20;;
76059;SDS011;64759;52.220;5.170;2023-02-28T01:50:02;9.13;;;2.15;;
76059;SDS011;64759;52.220;5.170;2023-02-28T01:52:31;5.03;;;1.92;;
76059;SDS011;64759;52.220;5.170;2023-02-28T01:54:58;3.15;;;1.52;;
76059;SDS011;64759;52.220;5.170;2023-02-28T01:57:27;6.05;;;2.30;;
76059;SDS011;64759;52.220;5.170;2023-02-28T02:00:04;4.40;;;1.67;;
76059;SDS011;64759;52.220;5.170;2023-02-28T02:02:46;4.25;;;2.20;;
76059;SDS011;64759;52.220;5.170;2023-02-28T02:05:15;8.10;;;2.58;;
76059;SDS011;64759;52.220;5.170;2023-02-28T02:07:52;3.40;;;2.08;;
76059;SDS011;64759;52.220;5.170;2023-02-28T02:10:24;3.13;;;1.90;;
76059;SDS011;64759;52.220;5.170;2023-02-28T02:18:51;7.75;;;2.20;;
76059;SDS011;64759;52.220;5.170;2023-02-28T02:35:36;4.95;;;1.88;;
76059;SDS011;64759;52.220;5.170;2023-02-28T02:38:16;5.93;;;2.10;;
76059;SDS011;64759;52.220;5.170;2023-02-28T02:40:57;4.07;;;2.05;;
76059;SDS011;64759;52.220;5.170;2023-02-28T02:43:38;4.82;;;2.20;;
76059;SDS011;64759;52.220;5.170;2023-02-28T02:46:19;7.70;;;2.10;;
76059;SDS011;64759;52.220;5.170;2023-02-28T02:48:49;3.90;;;2.25;;
76059;SDS011;64759;52.220;5.170;2023-02-28T02:51:19;6.95;;;2.33;;
76059;SDS011;64759;52.220;5.170;2023-02-28T02:53:49;3.97;;;2.13;;
76059;SDS011;64759;52.220;5.170;2023-02-28T02:56:21;7.32;;;2.25;;
76059;SDS011;64759;52.220;5.170;2023-02-28T02:58:51;9.07;;;2.95;;
76059;SDS011;64759;52.220;5.170;2023-02-28T03:01:21;6.63;;;2.45;;
76059;SDS011;64759;52.220;5.170;2023-02-28T03:04:00;7.18;;;2.90;;
76059;SDS011;64759;52.220;5.170;2023-02-28T03:06:29;4.40;;;2.75;;
76059;SDS011;64759;52.220;5.170;2023-02-28T03:08:54;3.95;;;2.10;;
76059;SDS011;64759;52.220;5.170;2023-02-28T03:11:21;4.78;;;2.15;;
76059;SDS011;64759;52.220;5.170;2023-02-28T03:19:29;11.55;;;2.55;;
76059;SDS011;64759;52.220;5.170;2023-02-28T03:28:00;10.93;;;2.65;;
76059;SDS011;64759;52.220;5.170;2023-02-28T03:35:54;5.88;;;2.33;;
76059;SDS011;64759;52.220;5.170;2023-02-28T03:40:48;9.68;;;2.80;;
76059;SDS011;64759;52.220;5.170;2023-02-28T03:43:19;7.35;;;2.55;;
76059;SDS011;64759;52.220;5.170;2023-02-28T03:45:50;9.48;;;3.38;;
76059;SDS011;64759;52.220;5.170;2023-02-28T03:51:12;3.97;;;2.47;;
76059;SDS011;64759;52.220;5.170;2023-02-28T03:53:43;6.85;;;2.67;;
76059;SDS011;64759;52.220;5.170;2023-02-28T03:56:32;5.90;;;2.50;;
76059;SDS011;64759;52.220;5.170;2023-02-28T03:59:06;5.50;;;2.60;;
76059;SDS011;64759;52.220;5.170;2023-02-28T04:01:39;4.65;;;2.78;;
76059;SDS011;64759;52.220;5.170;2023-02-28T04:04:10;6.38;;;2.80;;
76059;SDS011;64759;52.220;5.170;2023-02-28T04:06:37;8.13;;;3.03;;
76059;SDS011;64759;52.220;5.170;2023-02-28T04:09:04;6.05;;;2.78;;
76059;SDS011;64759;52.220;5.170;2023-02-28T04:11:34;8.95;;;3.28;;
76059;SDS011;64759;52.220;5.170;2023-02-28T04:14:02;5.07;;;2.90;;
76059;SDS011;64759;52.220;5.170;2023-02-28T04:16:29;6.30;;;2.85;;
76059;SDS011;64759;52.220;5.170;2023-02-28T04:18:56;7.95;;;2.85;;
76059;SDS011;64759;52.220;5.170;2023-02-28T04:21:27;8.63;;;3.53;;
76059;SDS011;64759;52.220;5.170;2023-02-28T04:23:54;7.38;;;3.28;;
76059;SDS011;64759;52.220;5.170;2023-02-28T04:26:19;10.43;;;3.40;;
76059;SDS011;64759;52.220;5.170;2023-02-28T04:28:45;7.90;;;3.00;;
76059;SDS011;64759;52.220;5.170;2023-02-28T04:31:10;8.90;;;3.40;;
76059;SDS011;64759;52.220;5.170;2023-02-28T04:33:35;9.45;;;3.50;;
76059;SDS011;64759;52.220;5.170;2023-02-28T04:36:02;8.40;;;3.53;;
76059;SDS011;64759;52.220;5.170;2023-02-28T04:38:31;7.47;;;3.25;;
76059;SDS011;64759;52.220;5.170;2023-02-28T04:40:58;7.80;;;3.95;;
76059;SDS011;64759;52.220;5.170;2023-02-28T04:43:25;7.63;;;3.65;;
76059;SDS011;64759;52.220;5.170;2023-02-28T04:45:51;8.65;;;4.90;;
76059;SDS011;64759;52.220;5.170;2023-02-28T04:48:17;10.30;;;4.95;;
76059;SDS011;64759;52.220;5.170;2023-02-28T04:50:42;9.43;;;4.72;;
76059;SDS011;64759;52.220;5.170;2023-02-28T04:53:07;11.25;;;6.32;;
76059;SDS011;64759;52.220;5.170;2023-02-28T04:55:33;15.73;;;5.22;;
76059;SDS011;64759;52.220;5.170;2023-02-28T04:57:58;9.75;;;5.32;;
76059;SDS011;64759;52.220;5.170;2023-02-28T05:00:23;13.00;;;6.15;;
76059;SDS011;64759;52.220;5.170;2023-02-28T05:02:50;10.20;;;5.78;;
76059;SDS011;64759;52.220;5.170;2023-02-28T05:05:15;10.10;;;6.38;;
76059;SDS011;64759;52.220;5.170;2023-02-28T05:07:43;12.65;;;6.40;;
76059;SDS011;64759;52.220;5.170;2023-02-28T05:10:10;11.10;;;7.63;;
76059;SDS011;64759;52.220;5.170;2023-02-28T05:12:36;8.88;;;5.72;;
76059;SDS011;64759;52.220;5.170;2023-02-28T05:15:01;6.85;;;4.40;;
76059;SDS011;64759;52.220;5.170;2023-02-28T05:17:27;5.50;;;4.00;;
76059;SDS011;64759;52.220;5.170;2023-02-28T05:19:53;12.32;;;4.43;;
76059;SDS011;64759;52.220;5.170;2023-02-28T05:22:18;7.93;;;4.07;;
76059;SDS011;64759;52.220;5.170;2023-02-28T05:24:44;6.00;;;3.22;;
76059;SDS011;64759;52.220;5.170;2023-02-28T05:27:10;4.55;;;3.08;;
76059;SDS011;64759;52.220;5.170;2023-02-28T05:29:35;7.40;;;3.55;;
76059;SDS011;64759;52.220;5.170;2023-02-28T05:32:10;7.43;;;3.00;;
76059;SDS011;64759;52.220;5.170;2023-02-28T05:34:37;6.32;;;3.05;;
76059;SDS011;64759;52.220;5.170;2023-02-28T05:37:03;3.38;;;2.65;;
76059;SDS011;64759;52.220;5.170;2023-02-28T05:39:29;7.57;;;3.20;;
76059;SDS011;64759;52.220;5.170;2023-02-28T05:41:54;5.68;;;2.80;;
76059;SDS011;64759;52.220;5.170;2023-02-28T05:44:20;3.63;;;2.45;;
76059;SDS011;64759;52.220;5.170;2023-02-28T05:46:45;6.75;;;2.20;;
76059;SDS011;64759;52.220;5.170;2023-02-28T05:49:10;5.82;;;3.38;;
76059;SDS011;64759;52.220;5.170;2023-02-28T05:51:36;6.10;;;2.40;;
76059;SDS011;64759;52.220;5.170;2023-02-28T05:54:04;3.85;;;2.28;;
76059;SDS011;64759;52.220;5.170;2023-02-28T05:56:31;6.65;;;2.33;;
76059;SDS011;64759;52.220;5.170;2023-02-28T05:58:57;7.20;;;2.45;;
76059;SDS011;64759;52.220;5.170;2023-02-28T06:01:30;4.68;;;2.13;;
76059;SDS011;64759;52.220;5.170;2023-02-28T06:03:57;3.60;;;2.30;;
76059;SDS011;64759;52.220;5.170;2023-02-28T06:06:24;7.45;;;2.40;;
76059;SDS011;64759;52.220;5.170;2023-02-28T06:08:50;7.32;;;2.50;;
76059;SDS011;64759;52.220;5.170;2023-02-28T06:11:15;4.68;;;2.53;;
76059;SDS011;64759;52.220;5.170;2023-02-28T06:13:41;8.68;;;2.40;;
76059;SDS011;64759;52.220;5.170;2023-02-28T06:16:07;5.15;;;2.70;;
76059;SDS011;64759;52.220;5.170;2023-02-28T06:18:35;10.02;;;2.78;;
76059;SDS011;64759;52.220;5.170;2023-02-28T06:21:01;6.32;;;2.83;;
76059;SDS011;64759;52.220;5.170;2023-02-28T06:23:26;3.70;;;2.40;;
76059;SDS011;64759;52.220;5.170;2023-02-28T06:25:52;7.03;;;3.53;;
76059;SDS011;64759;52.220;5.170;2023-02-28T06:28:18;5.97;;;2.80;;
76059;SDS011;64759;52.220;5.170;2023-02-28T06:30:43;3.80;;;2.70;;
76059;SDS011;64759;52.220;5.170;2023-02-28T06:33:09;4.82;;;3.22;;
76059;SDS011;64759;52.220;5.170;2023-02-28T06:35:34;4.40;;;2.90;;
76059;SDS011;64759;52.220;5.170;2023-02-28T06:38:00;5.70;;;3.40;;
76059;SDS011;64759;52.220;5.170;2023-02-28T06:40:25;4.93;;;3.22;;
76059;SDS011;64759;52.220;5.170;2023-02-28T06:42:51;6.25;;;3.20;;
76059;SDS011;64759;52.220;5.170;2023-02-28T06:45:17;7.63;;;3.55;;
76059;SDS011;64759;52.220;5.170;2023-02-28T06:47:42;6.82;;;3.22;;
76059;SDS011;64759;52.220;5.170;2023-02-28T06:50:11;6.88;;;3.40;;
76059;SDS011;64759;52.220;5.170;2023-02-28T06:52:38;8.32;;;3.13;;
76059;SDS011;64759;52.220;5.170;2023-02-28T06:55:06;6.10;;;3.40;;
76059;SDS011;64759;52.220;5.170;2023-02-28T06:57:33;6.50;;;3.00;;
76059;SDS011;64759;52.220;5.170;2023-02-28T07:00:04;8.40;;;3.72;;
76059;SDS011;64759;52.220;5.170;2023-02-28T07:02:32;5.53;;;3.00;;
76059;SDS011;64759;52.220;5.170;2023-02-28T07:04:58;4.95;;;2.95;;
76059;SDS011;64759;52.220;5.170;2023-02-28T07:07:23;8.45;;;3.30;;
76059;SDS011;64759;52.220;5.170;2023-02-28T07:09:49;12.05;;;3.90;;
76059;SDS011;64759;52.220;5.170;2023-02-28T07:12:14;4.63;;;3.45;;
76059;SDS011;64759;52.220;5.170;2023-02-28T07:14:40;6.85;;;3.88;;
76059;SDS011;64759;52.220;5.170;2023-02-28T07:17:08;7.80;;;3.95;;
76059;SDS011;64759;52.220;5.170;2023-02-28T07:19:37;7.95;;;3.70;;
76059;SDS011;64759;52.220;5.170;2023-02-28T07:22:02;9.73;;;4.75;;
76059;SDS011;64759;52.220;5.170;2023-02-28T07:24:28;9.40;;;4.22;;
76059;SDS011;64759;52.220;5.170;2023-02-28T07:26:54;5.80;;;3.35;;
76059;SDS011;64759;52.220;5.170;2023-02-28T07:29:20;5.95;;;3.70;;
76059;SDS011;64759;52.220;5.170;2023-02-28T07:31:46;5.20;;;3.67;;
76059;SDS011;64759;52.220;5.170;2023-02-28T07:34:11;7.22;;;3.38;;
76059;SDS011;64759;52.220;5.170;2023-02-28T07:36:37;8.00;;;3.97;;
76059;SDS011;64759;52.220;5.170;2023-02-28T07:39:03;4.97;;;3.63;;
76059;SDS011;64759;52.220;5.170;2023-02-28T07:41:29;6.28;;;3.70;;
76059;SDS011;64759;52.220;5.170;2023-02-28T07:43:58;5.97;;;3.78;;
76059;SDS011;64759;52.220;5.170;2023-02-28T07:46:24;10.05;;;4.05;;
76059;SDS011;64759;52.220;5.170;2023-02-28T07:48:51;6.78;;;3.58;;
76059;SDS011;64759;52.220;5.170;2023-02-28T07:51:17;8.20;;;3.85;;
76059;SDS011;64759;52.220;5.170;2023-02-28T07:53:43;9.70;;;4.18;;
76059;SDS011;64759;52.220;5.170;2023-02-28T07:56:09;9.13;;;4.53;;
76059;SDS011;64759;52.220;5.170;2023-02-28T07:58:35;5.38;;;4.25;;
76059;SDS011;64759;52.220;5.170;2023-02-28T08:01:08;12.32;;;5.03;;
76059;SDS011;64759;52.220;5.170;2023-02-28T08:03:35;11.15;;;4.60;;
76059;SDS011;64759;52.220;5.170;2023-02-28T08:06:02;8.07;;;4.25;;
76059;SDS011;64759;52.220;5.170;2023-02-28T08:08:29;10.65;;;4.95;;
76059;SDS011;64759;52.220;5.170;2023-02-28T08:10:57;9.02;;;4.47;;
76059;SDS011;64759;52.220;5.170;2023-02-28T08:13:25;8.68;;;5.28;;
76059;SDS011;64759;52.220;5.170;2023-02-28T08:15:52;9.32;;;4.97;;
76059;SDS011;64759;52.220;5.170;2023-02-28T08:18:19;10.50;;;4.80;;
76059;SDS011;64759;52.220;5.170;2023-02-28T08:20:44;7.88;;;5.10;;
76059;SDS011;64759;52.220;5.170;2023-02-28T08:23:09;7.80;;;4.70;;
76059;SDS011;64759;52.220;5.170;2023-02-28T08:25:35;12.52;;;5.32;;
76059;SDS011;64759;52.220;5.170;2023-02-28T08:28:00;7.05;;;4.30;;
76059;SDS011;64759;52.220;5.170;2023-02-28T08:30:26;6.78;;;4.20;;
76059;SDS011;64759;52.220;5.170;2023-02-28T08:32:51;6.15;;;4.40;;
76059;SDS011;64759;52.220;5.170;2023-02-28T08:35:16;7.70;;;3.92;;
76059;SDS011;64759;52.220;5.170;2023-02-28T08:37:42;9.10;;;4.45;;
76059;SDS011;64759;52.220;5.170;2023-02-28T08:40:07;7.93;;;4.38;;
76059;SDS011;64759;52.220;5.170;2023-02-28T08:42:33;8.80;;;4.00;;
76059;SDS011;64759;52.220;5.170;2023-02-28T08:44:59;8.43;;;4.30;;
76059;SDS011;64759;52.220;5.170;2023-02-28T08:47:24;9.65;;;4.18;;
76059;SDS011;64759;52.220;5.170;2023-02-28T08:49:49;5.28;;;3.50;;
76059;SDS011;64759;52.220;5.170;2023-02-28T08:52:15;6.72;;;3.55;;
76059;SDS011;64759;52.220;5.170;2023-02-28T08:54:40;12.32;;;4.00;;
76059;SDS011;64759;52.220;5.170;2023-02-28T08:57:05;8.73;;;4.20;;
76059;SDS011;64759;52.220;5.170;2023-02-28T08:59:31;9.15;;;3.58;;
76059;SDS011;64759;52.220;5.170;2023-02-28T09:01:57;10.70;;;3.97;;
76059;SDS011;64759;52.220;5.170;2023-02-28T09:04:22;7.18;;;3.28;;
76059;SDS011;64759;52.220;5.170;2023-02-28T09:06:48;5.40;;;3.78;;
76059;SDS011;64759;52.220;5.170;2023-02-28T09:09:14;5.63;;;3.90;;
76059;SDS011;64759;52.220;5.170;2023-02-28T09:11:40;6.38;;;3.58;;
76059;SDS011;64759;52.220;5.170;2023-02-28T09:14:06;8.27;;;3.42;;
76059;SDS011;64759;52.220;5.170;2023-02-28T09:16:32;7.97;;;3.10;;
76059;SDS011;64759;52.220;5.170;2023-02-28T09:18:58;6.50;;;3.28;;
76059;SDS011;64759;52.220;5.170;2023-02-28T09:21:23;4.03;;;2.75;;
76059;SDS011;64759;52.220;5.170;2023-02-28T09:23:49;4.75;;;3.58;;
76059;SDS011;64759;52.220;5.170;2023-02-28T09:26:19;7.43;;;3.92;;
76059;SDS011;64759;52.220;5.170;2023-02-28T09:28:49;6.40;;;3.10;;
76059;SDS011;64759;52.220;5.170;2023-02-28T09:31:16;7.32;;;3.45;;
76059;SDS011;64759;52.220;5.170;2023-02-28T09:33:46;4.30;;;2.85;;
76059;SDS011;64759;52.220;5.170;2023-02-28T09:36:12;5.43;;;2.08;;
76059;SDS011;64759;52.220;5.170;2023-02-28T09:38:37;6.13;;;3.25;;
76059;SDS011;64759;52.220;5.170;2023-02-28T09:41:08;5.63;;;2.72;;
76059;SDS011;64759;52.220;5.170;2023-02-28T09:43:38;4.97;;;2.78;;
76059;SDS011;64759;52.220;5.170;2023-02-28T09:46:27;4.53;;;2.70;;
76059;SDS011;64759;52.220;5.170;2023-02-28T09:49:00;4.35;;;2.80;;
76059;SDS011;64759;52.220;5.170;2023-02-28T09:54:20;3.95;;;2.65;;
76059;SDS011;64759;52.220;5.170;2023-02-28T09:56:51;8.38;;;3.17;;
76059;SDS011;64759;52.220;5.170;2023-02-28T09:59:25;3.97;;;2.72;;
76059;SDS011;64759;52.220;5.170;2023-02-28T10:04:58;4.97;;;2.40;;
76059;SDS011;64759;52.220;5.170;2023-02-28T10:13:04;3.88;;;2.20;;
76059;SDS011;64759;52.220;5.170;2023-02-28T10:15:37;3.90;;;2.50;;
76059;SDS011;64759;52.220;5.170;2023-02-28T10:18:04;4.70;;;2.20;;
76059;SDS011;64759;52.220;5.170;2023-02-28T10:20:35;5.40;;;2.58;;
76059;SDS011;64759;52.220;5.170;2023-02-28T10:25:45;7.97;;;2.25;;
76059;SDS011;64759;52.220;5.170;2023-02-28T10:28:18;4.80;;;2.40;;
76059;SDS011;64759;52.220;5.170;2023-02-28T10:30:47;2.65;;;2.17;;
76059;SDS011;64759;52.220;5.170;2023-02-28T10:33:31;4.75;;;2.78;;
76059;SDS011;64759;52.220;5.170;2023-02-28T10:35:59;8.50;;;2.75;;
76059;SDS011;64759;52.220;5.170;2023-02-28T10:38:26;5.80;;;2.35;;
76059;SDS011;64759;52.220;5.170;2023-02-28T10:41:07;2.45;;;1.52;;
76059;SDS011;64759;52.220;5.170;2023-02-28T10:43:38;2.95;;;1.90;;
76059;SDS011;64759;52.220;5.170;2023-02-28T10:51:05;2.17;;;1.40;;
76059;SDS011;64759;52.220;5.170;2023-02-28T11:01:20;3.15;;;1.60;;
76059;SDS011;64759;52.220;5.170;2023-02-28T11:03:48;2.55;;;1.27;;
76059;SDS011;64759;52.220;5.170;2023-02-28T11:06:16;3.25;;;1.70;;
76059;SDS011;64759;52.220;5.170;2023-02-28T11:08:52;3.13;;;1.58;;
76059;SDS011;64759;52.220;5.170;2023-02-28T11:11:19;5.13;;;1.60;;
76059;SDS011;64759;52.220;5.170;2023-02-28T11:13:48;3.08;;;1.48;;
76059;SDS011;64759;52.220;5.170;2023-02-28T11:18:53;2.53;;;1.42;;
76059;SDS011;64759;52.220;5.170;2023-02-28T11:21:26;5.82;;;1.95;;
76059;SDS011;64759;52.220;5.170;2023-02-28T11:24:01;1.63;;;1.52;;
76059;SDS011;64759;52.220;5.170;2023-02-28T11:26:46;1.88;;;1.48;;
76059;SDS011;64759;52.220;5.170;2023-02-28T11:31:57;3.20;;;1.40;;
76059;SDS011;64759;52.220;5.170;2023-02-28T11:34:31;1.42;;;1.27;;
76059;SDS011;64759;52.220;5.170;2023-02-28T11:36:58;1.92;;;1.42;;
76059;SDS011;64759;52.220;5.170;2023-02-28T11:39:26;1.73;;;1.50;;
76059;SDS011;64759;52.220;5.170;2023-02-28T11:50:47;2.80;;;1.80;;
76059;SDS011;64759;52.220;5.170;2023-02-28T11:56:22;1.52;;;1.42;;
76059;SDS011;64759;52.220;5.170;2023-02-28T12:07:02;3.75;;;1.73;;
76059;SDS011;64759;52.220;5.170;2023-02-28T12:20:15;2.38;;;1.58;;
76059;SDS011;64759;52.220;5.170;2023-02-28T12:23:07;2.25;;;1.33;;
76059;SDS011;64759;52.220;5.170;2023-02-28T12:25:49;2.65;;;1.30;;
76059;SDS011;64759;52.220;5.170;2023-02-28T12:28:18;4.57;;;1.88;;
76059;SDS011;64759;52.220;5.170;2023-02-28T12:30:54;1.92;;;1.40;;
76059;SDS011;64759;52.220;5.170;2023-02-28T12:33:26;1.92;;;1.30;;
76059;SDS011;64759;52.220;5.170;2023-02-28T12:35:58;2.17;;;1.17;;
76059;SDS011;64759;52.220;5.170;2023-02-28T12:38:27;2.90;;;1.30;;
76059;SDS011;64759;52.220;5.170;2023-02-28T12:40:58;1.38;;;1.23;;
76059;SDS011;64759;52.220;5.170;2023-02-28T12:43:25;1.52;;;1.23;;
76059;SDS011;64759;52.220;5.170;2023-02-28T12:45:56;1.52;;;1.20;;
76059;SDS011;64759;52.220;5.170;2023-02-28T12:51:07;1.88;;;1.58;;
76059;SDS011;64759;52.220;5.170;2023-02-28T12:56:29;2.33;;;1.30;;
76059;SDS011;64759;52.220;5.170;2023-02-28T12:59:09;2.55;;;1.30;;
76059;SDS011;64759;52.220;5.170;2023-02-28T13:10:39;3.10;;;1.77;;
76059;SDS011;64759;52.220;5.170;2023-02-28T13:13:11;1.48;;;1.08;;
76059;SDS011;64759;52.220;5.170;2023-02-28T13:15:40;1.42;;;1.25;;
76059;SDS011;64759;52.220;5.170;2023-02-28T13:20:52;1.65;;;1.23;;
76059;SDS011;64759;52.220;5.170;2023-02-28T13:26:04;2.65;;;1.33;;
76059;SDS011;64759;52.220;5.170;2023-02-28T13:31:14;2.28;;;1.40;;
76059;SDS011;64759;52.220;5.170;2023-02-28T13:38:43;1.98;;;1.35;;
76059;SDS011;64759;52.220;5.170;2023-02-28T13:46:28;1.98;;;1.52;;
76059;SDS011;64759;52.220;5.170;2023-02-28T13:48:55;1.88;;;1.52;;
76059;SDS011;64759;52.220;5.170;2023-02-28T13:54:09;3.83;;;1.30;;
76059;SDS011;64759;52.220;5.170;2023-02-28T14:05:20;2.17;;;1.60;;
76059;SDS011;64759;52.220;5.170;2023-02-28T14:07:52;1.50;;;1.17;;
76059;SDS011;64759;52.220;5.170;2023-02-28T14:10:30;2.47;;;1.40;;
76059;SDS011;64759;52.220;5.170;2023-02-28T14:13:03;3.90;;;1.40;;
76059;SDS011;64759;52.220;5.170;2023-02-28T14:15:54;2.35;;;1.40;;
76059;SDS011;64759;52.220;5.170;2023-02-28T14:18:37;2.42;;;1.50;;
76059;SDS011;64759;52.220;5.170;2023-02-28T14:21:24;3.42;;;1.65;;
76059;SDS011;64759;52.220;5.170;2023-02-28T14:24:08;1.90;;;1.40;;
76059;SDS011;64759;52.220;5.170;2023-02-28T14:26:51;2.70;;;1.33;;
76059;SDS011;64759;52.220;5.170;2023-02-28T14:32:50;3.75;;;1.40;;
76059;SDS011;64759;52.220;5.170;2023-02-28T14:37:51;1.98;;;1.17;;
76059;SDS011;64759;52.220;5.170;2023-02-28T14:40:29;3.35;;;1.70;;
76059;SDS011;64759;52.220;5.170;2023-02-28T14:43:01;2.95;;;1.50;;
76059;SDS011;64759;52.220;5.170;2023-02-28T14:45:29;7.93;;;2.20;;
76059;SDS011;64759;52.220;5.170;2023-02-28T14:47:56;2.55;;;1.50;;
76059;SDS011;64759;52.220;5.170;2023-02-28T14:50:33;2.92;;;1.38;;
76059;SDS011;64759;52.220;5.170;2023-02-28T14:53:00;2.17;;;1.98;;
76059;SDS011;64759;52.220;5.170;2023-02-28T14:55:31;2.20;;;1.73;;
76059;SDS011;64759;52.220;5.170;2023-02-28T14:57:59;3.17;;;1.95;;
76059;SDS011;64759;52.220;5.170;2023-02-28T15:00:32;3.00;;;1.73;;
76059;SDS011;64759;52.220;5.170;2023-02-28T15:03:00;1.88;;;1.20;;
76059;SDS011;64759;52.220;5.170;2023-02-28T15:05:47;2.72;;;1.50;;
76059;SDS011;64759;52.220;5.170;2023-02-28T15:08:17;2.85;;;1.65;;
76059;SDS011;64759;52.220;5.170;2023-02-28T15:11:25;1.88;;;1.40;;
76059;SDS011;64759;52.220;5.170;2023-02-28T15:13:50;2.03;;;1.80;;
76059;SDS011;64759;52.220;5.170;2023-02-28T15:16:19;3.95;;;1.70;;
76059;SDS011;64759;52.220;5.170;2023-02-28T15:18:56;2.60;;;1.85;;
76059;SDS011;64759;52.220;5.170;2023-02-28T15:21:32;5.28;;;1.50;;
76059;SDS011;64759;52.220;5.170;2023-02-28T15:24:02;2.97;;;1.80;;
76059;SDS011;64759;52.220;5.170;2023-02-28T15:26:30;2.38;;;1.70;;
76059;SDS011;64759;52.220;5.170;2023-02-28T15:29:04;2.42;;;1.70;;
76059;SDS011;64759;52.220;5.170;2023-02-28T15:31:35;4.78;;;1.63;;
76059;SDS011;64759;52.220;5.170;2023-02-28T15:34:12;2.80;;;1.90;;
76059;SDS011;64759;52.220;5.170;2023-02-28T15:36:43;3.65;;;1.98;;
76059;SDS011;64759;52.220;5.170;2023-02-28T15:39:23;6.38;;;1.80;;
76059;SDS011;64759;52.220;5.170;2023-02-28T15:41:52;5.15;;;1.98;;
76059;SDS011;64759;52.220;5.170;2023-02-28T15:44:34;4.20;;;2.25;;
76059;SDS011;64759;52.220;5.170;2023-02-28T15:47:06;3.90;;;2.20;;
76059;SDS011;64759;52.220;5.170;2023-02-28T15:49:49;2.13;;;1.83;;
76059;SDS011;64759;52.220;5.170;2023-02-28T15:52:17;4.40;;;1.90;;
76059;SDS011;64759;52.220;5.170;2023-02-28T15:54:46;2.42;;;2.00;;
76059;SDS011;64759;52.220;5.170;2023-02-28T15:57:20;2.63;;;2.25;;
76059;SDS011;64759;52.220;5.170;2023-02-28T15:59:51;6.22;;;2.88;;
76059;SDS011;64759;52.220;5.170;2023-02-28T16:02:20;5.28;;;2.65;;
76059;SDS011;64759;52.220;5.170;2023-02-28T16:04:56;4.28;;;1.92;;
76059;SDS011;64759;52.220;5.170;2023-02-28T16:07:31;4.75;;;1.98;;
76059;SDS011;64759;52.220;5.170;2023-02-28T16:09:58;4.88;;;2.15;;
76059;SDS011;64759;52.220;5.170;2023-02-28T16:12:26;6.25;;;2.35;;
76059;SDS011;64759;52.220;5.170;2023-02-28T16:14:54;3.25;;;2.10;;
76059;SDS011;64759;52.220;5.170;2023-02-28T16:17:25;3.13;;;2.03;;
76059;SDS011;64759;52.220;5.170;2023-02-28T16:19:52;5.80;;;2.50;;
76059;SDS011;64759;52.220;5.170;2023-02-28T16:22:19;5.50;;;2.47;;
76059;SDS011;64759;52.220;5.170;2023-02-28T16:24:44;7.85;;;2.35;;
76059;SDS011;64759;52.220;5.170;2023-02-28T16:29:56;4.72;;;2.00;;
76059;SDS011;64759;52.220;5.170;2023-02-28T16:32:22;5.28;;;3.38;;
76059;SDS011;64759;52.220;5.170;2023-02-28T16:34:47;7.22;;;3.85;;
76059;SDS011;64759;52.220;5.170;2023-02-28T16:37:13;4.40;;;2.60;;
76059;SDS011;64759;52.220;5.170;2023-02-28T16:39:41;8.15;;;3.70;;
76059;SDS011;64759;52.220;5.170;2023-02-28T16:42:09;2.38;;;2.00;;
76059;SDS011;64759;52.220;5.170;2023-02-28T16:44:40;5.47;;;2.40;;
76059;SDS011;64759;52.220;5.170;2023-02-28T16:47:05;4.55;;;2.67;;
76059;SDS011;64759;52.220;5.170;2023-02-28T16:49:31;2.42;;;1.90;;
76059;SDS011;64759;52.220;5.170;2023-02-28T16:51:56;5.70;;;2.13;;
76059;SDS011;64759;52.220;5.170;2023-02-28T16:54:22;3.72;;;2.10;;
76059;SDS011;64759;52.220;5.170;2023-02-28T16:56:48;8.70;;;4.55;;
76059;SDS011;64759;52.220;5.170;2023-02-28T16:59:15;3.15;;;1.90;;
76059;SDS011;64759;52.220;5.170;2023-02-28T17:01:44;3.75;;;2.25;;
76059;SDS011;64759;52.220;5.170;2023-02-28T17:04:12;5.93;;;2.58;;
76059;SDS011;64759;52.220;5.170;2023-02-28T17:06:39;4.88;;;2.50;;
76059;SDS011;64759;52.220;5.170;2023-02-28T17:09:05;6.55;;;2.92;;
76059;SDS011;64759;52.220;5.170;2023-02-28T17:11:30;6.55;;;2.72;;
76059;SDS011;64759;52.220;5.170;2023-02-28T17:13:56;5.68;;;2.75;;
76059;SDS011;64759;52.220;5.170;2023-02-28T17:16:28;4.32;;;2.40;;
76059;SDS011;64759;52.220;5.170;2023-02-28T17:18:59;7.05;;;2.40;;
76059;SDS011;64759;52.220;5.170;2023-02-28T17:21:26;7.63;;;3.67;;
76059;SDS011;64759;52.220;5.170;2023-02-28T17:23:52;6.63;;;2.47;;
76059;SDS011;64759;52.220;5.170;2023-02-28T17:26:19;5.68;;;2.92;;
76059;SDS011;64759;52.220;5.170;2023-02-28T17:28:48;6.05;;;3.72;;
76059;SDS011;64759;52.220;5.170;2023-02-28T17:31:14;6.63;;;4.35;;
76059;SDS011;64759;52.220;5.170;2023-02-28T17:33:40;2.92;;;2.63;;
76059;SDS011;64759;52.220;5.170;2023-02-28T17:36:06;5.55;;;3.38;;
76059;SDS011;64759;52.220;5.170;2023-02-28T17:38:34;6.72;;;3.33;;
76059;SDS011;64759;52.220;5.170;2023-02-28T17:40:59;4.28;;;3.45;;